Time;durP1;ratioP1;P1;durP2;ratioP2;P2;SDS_P1;SDS_P2;PMS_P1;PMS_P2;Temp;Humidity;BMP_temperature;BMP_pressure;BME280_temperature;BME280_humidity;BME280_pressure;Samples;Min_cycle;Max_cycle;Signal;HPM_P1;HPM_P2
2023/07/30 00:04:09;;;;;;;11.27;4.22;;;;;;;20.00;84.72;99952.63;10320186;28;20049;-81
2023/07/30 00:09:10;;;;;;;11.27;4.40;;;;;;;19.61;84.70;99901.16;10320637;28;20530;-80
2023/07/30 00:14:10;;;;;;;8.45;3.92;;;;;;;19.30;85.00;99870.06;10338352;28;20038;-80
2023/07/30 00:19:11;;;;;;;7.65;4.90;;;;;;;19.73;85.95;99941.56;10336862;28;20052;-80
2023/07/30 00:24:13;;;;;;;12.90;4.85;;;;;;;20.02;87.03;99999.06;10336941;28;20073;-80
2023/07/30 00:29:14;;;;;;;12.45;4.38;;;;;;;19.63;87.10;99921.66;10336640;28;20034;-80
2023/07/30 00:34:15;;;;;;;7.68;4.30;;;;;;;19.58;87.04;99915.09;10337007;28;20042;-80
2023/07/30 00:39:15;;;;;;;12.23;4.45;;;;;;;19.81;86.31;99946.59;10336750;28;20046;-80
2023/07/30 00:44:16;;;;;;;30.58;5.22;;;;;;;20.48;86.92;100043.09;10319042;28;20402;-80
2023/07/30 00:49:17;;;;;;;11.90;4.93;;;;;;;19.50;87.54;99907.38;10337457;28;20046;-80
2023/07/30 00:54:18;;;;;;;10.60;4.80;;;;;;;19.96;88.42;99988.41;10318177;28;20046;-80
2023/07/30 00:59:20;;;;;;;14.38;4.70;;;;;;;19.46;89.13;99917.00;10335596;28;20046;-86
2023/07/30 01:04:21;;;;;;;16.48;5.30;;;;;;;19.96;89.22;100010.78;10335975;28;20049;-80
2023/07/30 01:09:23;;;;;;;25.73;5.35;;;;;;;18.91;89.05;99858.16;10318076;28;20049;-82
2023/07/30 01:14:26;;;;;;;11.43;4.68;;;;;;;19.38;89.03;99903.88;10335609;28;20617;-80
2023/07/30 01:19:27;;;;;;;13.63;5.20;;;;;;;19.81;89.08;99970.03;10335689;28;20061;-80
2023/07/30 01:24:27;;;;;;;11.43;4.82;;;;;;;19.59;89.05;99938.31;10334993;28;20608;-80
2023/07/30 01:29:54;;;;;;;27.30;5.38;;;;;;;19.84;90.33;99993.81;10334833;28;20525;-80
2023/07/30 01:34:57;;;;;;;22.98;5.35;;;;;;;19.80;90.04;99998.88;10335222;28;20042;-80
2023/07/30 01:39:59;;;;;;;9.60;4.57;;;;;;;19.08;89.03;99885.19;10334554;28;20137;-81
2023/07/30 01:45:00;;;;;;;13.23;4.45;;;;;;;19.55;88.45;99942.50;10317269;28;20092;-80
2023/07/30 01:50:01;;;;;;;17.77;5.60;;;;;;;20.25;89.11;100064.75;10317131;28;20383;-80
2023/07/30 01:55:03;;;;;;;55.03;6.32;;;;;;;19.64;89.79;99985.25;10334461;28;20463;-80
2023/07/30 02:00:04;;;;;;;71.47;7.50;;;;;;;18.90;89.99;99872.66;10333622;28;20410;-80
2023/07/30 02:05:05;;;;;;;13.98;4.93;;;;;;;18.91;90.37;99899.34;10333775;28;20054;-80
2023/07/30 02:10:06;;;;;;;41.10;5.85;;;;;;;19.95;89.95;100052.28;10315966;28;20125;-80
2023/07/30 02:15:07;;;;;;;71.18;6.25;;;;;;;19.86;90.54;100034.81;10333706;28;20046;-80
2023/07/30 02:20:09;;;;;;;65.55;7.13;;;;;;;19.37;90.88;99970.41;10332740;28;20042;-79
2023/07/30 02:25:10;;;;;;;38.08;5.82;;;;;;;19.78;90.52;100021.72;10332188;28;20034;-81
2023/07/30 02:30:11;;;;;;;14.50;4.70;;;;;;;19.44;90.05;99956.81;10332651;28;20541;-80
2023/07/30 02:35:11;;;;;;;15.90;4.95;;;;;;;20.00;90.15;100033.50;10332923;28;20053;-80
2023/07/30 02:40:12;;;;;;;65.05;6.55;;;;;;;20.03;90.16;100027.66;10332522;28;20046;-80
2023/07/30 02:45:13;;;;;;;10.10;4.47;;;;;;;19.88;90.40;99978.81;10332852;28;20096;-80
2023/07/30 02:50:14;;;;;;;9.57;4.38;;;;;;;19.87;89.97;99965.56;10332957;28;20177;-80
2023/07/30 02:55:16;;;;;;;10.93;4.50;;;;;;;20.19;89.26;99969.47;10331069;28;20121;-80
2023/07/30 03:00:17;;;;;;;31.88;5.35;;;;;;;19.84;88.27;99891.41;10314625;28;20105;-80
2023/07/30 03:05:17;;;;;;;9.50;4.55;;;;;;;20.67;88.27;100024.88;10331930;28;20050;-80
2023/07/30 03:10:18;;;;;;;6.97;4.97;;;;;;;20.29;87.72;99964.25;10332116;28;20518;-80
2023/07/30 03:15:19;;;;;;;8.15;4.38;;;;;;;20.59;87.15;99998.28;10333104;28;20042;-80
2023/07/30 03:20:20;;;;;;;10.90;4.15;;;;;;;21.29;85.31;100094.25;10339919;28;20046;-80
2023/07/30 03:25:21;;;;;;;7.45;3.70;;;;;;;21.37;83.82;100083.09;10322221;28;20129;-80
2023/07/30 03:30:21;;;;;;;6.63;3.42;;;;;;;21.37;82.44;100050.66;10322087;28;20038;-80
2023/07/30 03:35:22;;;;;;;7.55;3.90;;;;;;;21.25;81.28;100003.97;10339803;28;20517;-80
2023/07/30 03:40:23;;;;;;;7.47;3.70;;;;;;;21.76;80.01;100058.00;10338994;28;20050;-81
2023/07/30 03:45:23;;;;;;;7.32;4.32;;;;;;;21.56;79.37;100026.88;10321297;28;20038;-81
2023/07/30 03:50:25;;;;;;;6.63;3.50;;;;;;;21.85;77.44;100060.03;10339628;28;20048;-82
2023/07/30 03:55:26;;;;;;;9.13;3.85;;;;;;;22.02;75.95;100024.00;10338229;28;20042;-80
2023/07/30 04:00:28;;;;;;;7.70;3.95;;;;;;;22.67;73.90;100003.38;10319075;28;20418;-80
2023/07/30 04:05:30;;;;;;;6.80;3.53;;;;;;;23.88;71.85;100108.47;10338104;28;20069;-81
2023/07/30 04:10:30;;;;;;;8.40;3.70;;;;;;;24.78;67.15;100016.00;10337365;28;20061;-80
2023/07/30 04:15:31;;;;;;;8.88;3.72;;;;;;;25.44;64.45;100053.25;10320762;28;20068;-80
2023/07/30 04:20:32;;;;;;;6.30;2.88;;;;;;;25.75;61.51;99996.06;10337107;28;20046;-80
2023/07/30 04:25:33;;;;;;;5.63;2.80;;;;;;;26.57;58.83;100007.44;10336185;28;20038;-80
2023/07/30 04:30:34;;;;;;;5.40;3.20;;;;;;;27.71;56.11;99999.94;10336894;28;20133;-78
2023/07/30 04:35:35;;;;;;;6.20;2.63;;;;;;;27.72;55.78;100075.22;10320134;28;20089;-80
2023/07/30 04:40:36;;;;;;;5.90;2.60;;;;;;;27.41;54.94;100116.44;10335962;28;20073;-81
2023/07/30 04:45:37;;;;;;;6.28;2.10;;;;;;;28.19;52.44;100114.63;10336547;28;20104;-80
2023/07/30 04:50:39;;;;;;;4.43;2.00;;;;;;;28.48;49.47;99998.97;10335638;28;20066;-82
2023/07/30 04:55:40;;;;;;;6.38;2.42;;;;;;;29.53;48.51;100112.47;10336240;28;20555;-81
2023/07/30 05:00:40;;;;;;;4.07;2.03;;;;;;;28.33;48.60;100051.88;10335604;28;20042;-81
2023/07/30 05:05:41;;;;;;;10.77;2.85;;;;;;;27.08;51.62;100079.84;10336227;28;20502;-80
2023/07/30 05:10:42;;;;;;;7.88;2.53;;;;;;;26.90;52.36;100119.50;10335678;28;20058;-81
2023/07/30 05:15:43;;;;;;;4.63;2.25;;;;;;;27.30;51.74;100150.34;10334808;28;20052;-80
2023/07/30 05:20:46;;;;;;;6.40;2.45;;;;;;;26.84;50.49;100069.66;10334829;28;20092;-80
2023/07/30 05:25:47;;;;;;;3.53;2.03;;;;;;;27.00;50.16;100116.69;10335016;28;20042;-81
2023/07/30 05:30:47;;;;;;;8.35;2.40;;;;;;;26.38;50.40;100045.41;10318051;28;20058;-81
2023/07/30 05:35:48;;;;;;;4.03;1.80;;;;;;;26.73;51.22;100151.75;10316400;28;20041;-80
2023/07/30 05:40:49;;;;;;;5.30;2.28;;;;;;;26.21;50.35;100060.44;10332424;28;20184;-85
2023/07/30 05:45:50;;;;;;;3.20;1.80;;;;;;;26.90;49.44;100119.50;10315738;28;20073;-81
2023/07/30 05:50:50;;;;;;;7.72;2.03;;;;;;;25.94;49.40;99895.63;10333995;28;20402;-81
2023/07/30 05:55:51;;;;;;;5.93;2.10;;;;;;;27.37;48.73;100082.63;10334373;28;20042;-79
2023/07/30 06:00:52;;;;;;;4.25;1.92;;;;;;;27.19;48.46;100031.53;10315351;28;20056;-80
2023/07/30 06:05:53;;;;;;;5.13;2.30;;;;;;;27.89;49.55;100138.41;10332212;28;20502;-88
2023/07/30 06:10:54;;;;;;;5.47;2.08;;;;;;;27.51;47.94;100058.25;10333904;28;20117;-83
2023/07/30 06:15:54;;;;;;;5.45;2.30;;;;;;;28.03;48.21;100135.81;10335828;28;20042;-84
2023/07/30 06:20:55;;;;;;;3.38;1.42;;;;;;;28.26;48.70;100117.00;10330318;28;20081;-84
2023/07/30 06:25:56;;;;;;;5.60;1.90;;;;;;;28.44;48.52;100127.16;10332314;28;20049;-85
2023/07/30 06:31:01;;;;;;;4.85;1.65;;;;;;;28.18;44.95;100094.69;10332024;28;20073;-85
2023/07/30 06:36:01;;;;;;;10.55;1.90;;;;;;;28.35;46.13;100116.03;10332538;28;20129;-86
2023/07/30 06:41:03;;;;;;;3.33;1.67;;;;;;;27.92;46.16;100030.56;10331722;28;20042;-85
2023/07/30 06:46:03;;;;;;;9.20;1.67;;;;;;;28.39;45.08;100097.16;10333118;28;20499;-84
2023/07/30 06:51:09;;;;;;;4.25;1.70;;;;;;;28.09;43.67;100069.13;10331340;28;20034;-83
2023/07/30 06:56:10;;;;;;;7.72;1.70;;;;;;;28.09;44.24;100060.09;10331988;28;20042;-83
2023/07/30 07:01:10;;;;;;;3.50;1.50;;;;;;;28.26;44.14;100065.91;10331300;28;20418;-83
2023/07/30 07:06:11;;;;;;;5.20;1.50;;;;;;;28.32;43.03;100058.47;10331719;28;20041;-80
2023/07/30 07:11:12;;;;;;;3.30;1.38;;;;;;;28.52;42.63;100065.59;10331925;28;20398;-82
2023/07/30 07:16:13;;;;;;;2.53;1.38;;;;;;;28.61;41.33;100064.66;10332163;28;20510;-83
2023/07/30 07:21:15;;;;;;;4.78;1.60;;;;;;;28.68;41.78;100058.81;10330951;28;20291;-83
2023/07/30 07:26:15;;;;;;;4.03;1.30;;;;;;;28.92;42.16;100061.44;10330891;28;20126;-83
2023/07/30 07:31:16;;;;;;;7.82;2.75;;;;;;;28.67;41.65;99992.41;10331416;28;20042;-82
2023/07/30 07:36:17;;;;;;;5.80;1.60;;;;;;;28.92;41.90;100047.78;10331250;28;20043;-81
2023/07/30 07:41:18;;;;;;;4.32;1.50;;;;;;;28.91;42.32;100035.22;10331126;28;20478;-84
2023/07/30 07:46:18;;;;;;;3.38;1.77;;;;;;;28.93;42.07;100046.69;10330917;28;20057;-83
2023/07/30 07:51:19;;;;;;;4.55;1.73;;;;;;;29.12;42.71;100035.75;10331389;28;20041;-84
2023/07/30 07:56:20;;;;;;;2.58;1.38;;;;;;;28.92;42.17;99943.06;10330167;28;20054;-86
2023/07/30 08:01:21;;;;;;;3.80;1.60;;;;;;;29.21;41.32;100017.53;10331610;28;20133;-83
2023/07/30 08:06:21;;;;;;;4.00;1.58;;;;;;;28.74;41.40;99920.16;10338056;28;20096;-82
2023/07/30 08:11:22;;;;;;;3.92;1.48;;;;;;;29.27;41.12;99972.56;10338399;28;20051;-84
2023/07/30 08:16:23;;;;;;;4.82;1.75;;;;;;;29.69;40.24;100000.81;10336971;28;20042;-85
2023/07/30 08:21:25;;;;;;;4.47;1.63;;;;;;;29.31;40.73;99885.22;10336898;28;20046;-84
2023/07/30 08:26:26;;;;;;;5.40;1.87;;;;;;;30.00;41.02;99984.56;10337292;28;20518;-81
2023/07/30 08:31:26;;;;;;;3.55;1.70;;;;;;;29.31;40.30;99902.44;10336936;28;20038;-79
2023/07/30 08:36:27;;;;;;;2.75;1.42;;;;;;;29.75;39.79;99972.22;10336614;28;20050;-80
2023/07/30 08:41:28;;;;;;;3.85;1.70;;;;;;;29.29;39.60;99896.47;10336233;28;20038;-84
2023/07/30 08:46:28;;;;;;;12.57;1.50;;;;;;;29.77;39.96;99977.38;10336057;28;20046;-84
2023/07/30 08:51:31;;;;;;;4.38;1.50;;;;;;;29.45;39.56;99896.16;10336628;28;20038;-82
2023/07/30 08:56:32;;;;;;;4.70;1.60;;;;;;;30.09;38.94;99959.97;10335954;28;20148;-84
2023/07/30 09:01:38;;;;;;;5.45;1.60;;;;;;;29.80;38.10;99886.44;10335942;28;20056;-85
2023/07/30 09:06:39;;;;;;;6.05;1.42;;;;;;;30.45;38.33;99968.25;10335307;28;20042;-84
2023/07/30 09:11:40;;;;;;;4.65;1.98;;;;;;;30.61;38.85;99959.66;10334866;28;20050;-83
2023/07/30 09:16:41;;;;;;;5.22;1.77;;;;;;;30.58;38.79;99952.06;10335737;28;20038;-82
2023/07/30 09:21:42;;;;;;;7.50;2.08;;;;;;;30.56;38.41;99949.63;10334770;28;20049;-82
2023/07/30 09:26:44;;;;;;;6.35;1.77;;;;;;;30.27;37.09;99944.53;10334630;28;20034;-83
2023/07/30 09:31:51;;;;;;;7.63;1.80;;;;;;;30.51;36.52;99937.97;10335007;28;20042;-83
2023/07/30 09:36:55;;;;;;;3.17;1.70;;;;;;;30.81;37.26;99939.19;10334846;28;20133;-84
2023/07/30 09:42:01;;;;;;;2.85;1.80;;;;;;;30.52;35.32;99901.25;10334606;28;20046;-83
2023/07/30 09:47:04;;;;;;;5.18;1.80;;;;;;;30.46;37.88;99864.91;10335345;28;20038;-83
2023/07/30 09:52:06;;;;;;;3.63;1.95;;;;;;;31.10;37.69;99912.06;10334165;28;20042;-83
2023/07/30 09:57:06;;;;;;;8.45;2.22;;;;;;;30.87;37.99;99861.97;10333495;28;20088;-83
2023/07/30 10:02:10;;;;;;;7.75;2.20;;;;;;;31.24;36.12;99925.69;10333793;28;20070;-81
2023/07/30 10:07:16;;;;;;;4.63;1.80;;;;;;;31.40;38.71;99917.88;10334457;28;20042;-83
2023/07/30 10:12:21;;;;;;;9.13;2.20;;;;;;;30.88;37.04;99808.72;10334075;28;20450;-78
2023/07/30 10:17:22;;;;;;;41.03;3.83;;;;;;;31.28;38.36;99816.91;10333026;28;20053;-84
2023/07/30 10:22:25;;;;;;;4.13;1.77;;;;;;;31.91;37.18;99908.16;10332513;28;20049;-83
2023/07/30 10:27:35;;;;;;;7.53;1.80;;;;;;;31.48;35.49;99836.69;10332987;28;20486;-82
2023/07/30 10:32:39;;;;;;;3.53;1.90;;;;;;;31.53;37.05;99840.09;10332045;28;20054;-82
2023/07/30 10:37:47;;;;;;;3.45;1.60;;;;;;;32.14;35.71;99888.81;10330421;28;20046;-85
2023/07/30 10:42:49;;;;;;;2.97;1.50;;;;;;;31.45;35.73;99807.13;10332299;28;20050;-85
2023/07/30 10:47:49;;;;;;;8.93;2.10;;;;;;;31.89;36.11;99860.97;10332732;28;20605;-85
2023/07/30 10:52:50;;;;;;;5.78;1.83;;;;;;;32.09;36.11;99864.22;10332002;28;20050;-84
2023/07/30 10:57:51;;;;;;;5.10;2.10;;;;;;;32.00;34.77;99845.00;10331463;28;20514;-83
2023/07/30 11:02:55;;;;;;;3.22;1.80;;;;;;;32.01;35.39;99858.41;10332320;28;20042;-85
2023/07/30 11:07:56;;;;;;;9.57;2.20;;;;;;;31.78;36.00;99830.25;10331174;28;20062;-85
2023/07/30 11:12:57;;;;;;;14.43;2.25;;;;;;;32.15;36.13;99855.50;10331970;28;20518;-82
2023/07/30 11:17:58;;;;;;;2.53;1.55;;;;;;;31.93;35.11;99830.94;10329946;28;20046;-84
2023/07/30 11:22:59;;;;;;;5.50;2.00;;;;;;;32.05;35.17;99831.09;10330173;28;20039;-83
2023/07/30 11:27:59;;;;;;;3.38;1.70;;;;;;;32.16;35.16;99826.91;10329519;28;20050;-81
2023/07/30 11:33:00;;;;;;;3.50;1.73;;;;;;;32.30;34.85;99834.94;10330513;28;20514;-84
2023/07/30 11:38:01;;;;;;;4.07;1.63;;;;;;;32.28;35.20;99818.78;10330517;28;20042;-82
2023/07/30 11:43:04;;;;;;;3.17;1.52;;;;;;;32.36;33.75;99827.34;10339032;28;20629;-84
2023/07/30 11:48:10;;;;;;;3.65;1.70;;;;;;;32.34;34.28;99815.84;10339366;28;20038;-83
2023/07/30 11:53:11;;;;;;;10.07;1.80;;;;;;;32.28;34.48;99802.31;10334679;28;20490;-84
2023/07/30 11:58:12;;;;;;;4.68;1.50;;;;;;;31.96;34.29;99729.47;10336480;28;20042;-83
2023/07/30 12:03:13;;;;;;;4.87;1.80;;;;;;;32.60;34.56;99808.38;10336685;28;20118;-86
2023/07/30 12:08:17;;;;;;;5.47;1.80;;;;;;;32.39;34.41;99777.22;10334996;28;20130;-81
2023/07/30 12:13:20;;;;;;;8.82;2.60;;;;;;;32.83;34.53;99799.91;10332897;28;20581;-84
2023/07/30 12:18:26;;;;;;;4.20;1.90;;;;;;;33.06;33.91;99809.53;10335235;28;20046;-82
2023/07/30 12:23:26;;;;;;;7.47;4.65;;;;;;;33.07;33.79;99789.13;10334316;28;20232;-83
2023/07/30 12:28:27;;;;;;;4.85;2.28;;;;;;;32.80;34.07;99751.84;10333281;28;20096;-87
2023/07/30 12:33:28;;;;;;;5.00;1.80;;;;;;;32.88;33.31;99805.22;10332783;28;20042;-85
2023/07/30 12:38:29;;;;;;;3.33;1.77;;;;;;;32.73;33.30;99795.56;10316378;28;20042;-84
2023/07/30 12:43:29;;;;;;;5.00;1.67;;;;;;;32.39;33.14;99789.00;10334246;28;20045;-84
2023/07/30 12:48:30;;;;;;;5.95;1.90;;;;;;;32.37;32.57;99795.97;10333539;28;20130;-84
2023/07/30 12:53:31;;;;;;;4.82;2.20;;;;;;;32.29;33.19;99776.44;10316511;28;20038;-84
2023/07/30 12:58:32;;;;;;;5.45;2.08;;;;;;;32.04;34.44;99752.56;10334394;28;20049;-85
2023/07/30 13:03:32;;;;;;;5.15;2.00;;;;;;;31.83;33.93;99785.38;10334527;28;20038;-85
2023/07/30 13:08:33;;;;;;;6.50;2.35;;;;;;;31.35;35.14;99787.09;10333797;28;20698;-84
2023/07/30 13:13:34;;;;;;;7.72;3.28;;;;;;;30.93;36.24;99775.69;10333979;28;20046;-83
2023/07/30 13:18:35;;;;;;;5.18;2.70;;;;;;;31.06;36.14;99784.09;10333361;28;20506;-84
2023/07/30 13:23:35;;;;;;;4.32;1.65;;;;;;;31.42;34.45;99769.34;10333345;28;20045;-82
2023/07/30 13:28:36;;;;;;;20.02;2.83;;;;;;;31.22;36.47;99774.28;10315586;28;20042;-81
2023/07/30 13:33:37;;;;;;;11.77;2.28;;;;;;;30.73;37.93;99773.47;10333114;28;20034;-82
2023/07/30 13:38:39;;;;;;;13.73;2.22;;;;;;;30.35;38.51;99784.88;10332478;28;20041;-82
2023/07/30 13:43:39;;;;;;;7.97;1.95;;;;;;;30.10;39.07;99738.94;10331622;28;20119;-82
2023/07/30 13:48:40;;;;;;;5.65;1.90;;;;;;;30.92;38.34;99771.31;10332121;28;20161;-83
2023/07/30 13:53:41;;;;;;;5.78;1.80;;;;;;;31.20;36.55;99742.81;10332651;28;20034;-87
2023/07/30 13:58:42;;;;;;;3.10;1.63;;;;;;;31.53;34.92;99745.94;10333616;28;20057;-80
2023/07/30 14:03:44;;;;;;;7.25;2.03;;;;;;;31.77;34.69;99771.00;10332469;28;20034;-81
2023/07/30 14:08:44;;;;;;;5.07;1.87;;;;;;;31.94;34.82;99750.16;10333396;28;20442;-81
2023/07/30 14:13:45;;;;;;;5.60;2.00;;;;;;;31.91;34.19;99750.81;10333774;28;20058;-82
2023/07/30 14:18:46;;;;;;;3.47;1.75;;;;;;;31.46;34.68;99682.47;10333249;28;20131;-80
2023/07/30 14:23:47;;;;;;;4.20;1.80;;;;;;;31.70;34.91;99732.19;10333186;28;20074;-80
2023/07/30 14:28:48;;;;;;;7.22;1.85;;;;;;;31.76;35.19;99744.63;10332943;28;20049;-82
2023/07/30 14:33:48;;;;;;;4.82;1.92;;;;;;;31.74;34.61;99748.84;10332466;28;20065;-81
2023/07/30 14:38:49;;;;;;;4.90;2.10;;;;;;;31.54;34.70;99718.16;10331962;28;20042;-80
2023/07/30 14:43:50;;;;;;;10.50;2.20;;;;;;;31.50;35.73;99708.16;10331990;28;20042;-80
2023/07/30 14:48:51;;;;;;;38.97;3.70;;;;;;;31.53;36.10;99729.47;10331767;28;20041;-80
2023/07/30 14:53:52;;;;;;;24.65;4.20;;;;;;;31.40;36.62;99744.97;10331464;28;20046;-81
2023/07/30 14:58:52;;;;;;;35.47;4.13;;;;;;;30.98;36.49;99700.66;10331526;28;20505;-81
2023/07/30 15:03:53;;;;;;;21.65;2.85;;;;;;;31.14;36.88;99745.72;10332434;28;20050;-82
2023/07/30 15:08:54;;;;;;;11.02;2.83;;;;;;;31.07;35.84;99742.63;10331652;28;20042;-81
2023/07/30 15:13:55;;;;;;;24.77;4.43;;;;;;;30.71;36.26;99720.88;10340509;28;20058;-81
2023/07/30 15:18:56;;;;;;;33.53;4.35;;;;;;;30.77;35.98;99763.47;10345207;28;20042;-81
2023/07/30 15:24:00;;;;;;;26.73;3.08;;;;;;;30.70;36.88;99776.84;10344655;28;20054;-80
2023/07/30 15:29:01;;;;;;;47.88;25.02;;;;;;;29.85;37.74;99672.72;10344444;28;20128;-80
2023/07/30 15:34:03;;;;;;;79.80;16.17;;;;;;;29.85;39.72;99691.09;10344252;28;20189;-82
2023/07/30 15:39:03;;;;;;;34.92;5.90;;;;;;;29.97;41.43;99766.06;10344742;28;20049;-81
2023/07/30 15:44:04;;;;;;;50.88;6.00;;;;;;;29.86;41.81;99780.34;10344187;28;20038;-82
2023/07/30 15:49:05;;;;;;;20.85;4.43;;;;;;;29.52;41.77;99776.16;10344942;28;20398;-81
2023/07/30 15:54:06;;;;;;;70.35;7.53;;;;;;;29.27;42.28;99772.84;10344019;28;20121;-81
2023/07/30 15:59:08;;;;;;;119.65;11.68;;;;;;;29.17;44.58;99802.34;10344253;28;20045;-81
2023/07/30 16:04:08;;;;;;;78.15;21.45;;;;;;;28.62;45.56;99767.56;10326584;28;20042;-81
2023/07/30 16:09:09;;;;;;;133.43;55.63;;;;;;;28.30;47.51;99779.31;10343493;28;20137;-80
2023/07/30 16:14:10;;;;;;;186.43;46.08;;;;;;;28.04;49.81;99792.59;10344039;28;20042;-80
2023/07/30 16:19:13;;;;;;;109.32;39.88;;;;;;;27.50;51.91;99762.81;10343330;28;20050;-81
2023/07/30 16:24:15;;;;;;;65.07;24.83;;;;;;;26.88;53.89;99712.06;10338304;28;20042;-81
2023/07/30 16:29:16;;;;;;;144.93;50.22;;;;;;;26.61;56.02;99727.91;10337692;28;20043;-80
2023/07/30 16:34:16;;;;;;;154.50;71.45;;;;;;;26.82;57.19;99803.97;10337394;28;20402;-80
2023/07/30 16:39:17;;;;;;;122.70;54.45;;;;;;;26.50;57.37;99799.13;10336477;28;20552;-80
2023/07/30 16:44:18;;;;;;;89.13;29.50;;;;;;;26.21;57.16;99810.78;10336392;28;20077;-81
2023/07/30 16:49:19;;;;;;;79.47;25.10;;;;;;;25.37;58.20;99718.31;10335102;28;20038;-80
2023/07/30 16:54:20;;;;;;;87.80;23.85;;;;;;;25.68;58.61;99810.56;10336222;28;20043;-80
2023/07/30 16:59:21;;;;;;;49.13;12.75;;;;;;;25.50;59.30;99818.28;10336251;28;20081;-80
2023/07/30 17:04:21;;;;;;;36.67;12.50;;;;;;;25.32;61.36;99826.25;10335577;28;20045;-81
2023/07/30 17:09:23;;;;;;;35.28;10.00;;;;;;;25.09;62.51;99831.19;10335185;28;20082;-80
2023/07/30 17:14:23;;;;;;;34.05;8.93;;;;;;;24.53;63.54;99768.84;10335712;28;20506;-81
2023/07/30 17:19:26;;;;;;;30.35;9.10;;;;;;;24.54;64.06;99803.88;10336000;28;20089;-80
2023/07/30 17:24:27;;;;;;;29.23;11.40;;;;;;;24.61;64.05;99836.19;10335420;28;20064;-81
2023/07/30 17:29:28;;;;;;;43.88;12.68;;;;;;;24.06;65.45;99772.66;10335125;28;20056;-80
2023/07/30 17:34:29;;;;;;;22.58;9.07;;;;;;;24.30;66.20;99838.88;10334326;28;20504;-81
2023/07/30 17:39:34;;;;;;;17.58;7.80;;;;;;;23.91;67.23;99787.03;10333972;28;20046;-81
2023/07/30 17:44:34;;;;;;;19.05;6.32;;;;;;;23.78;67.19;99796.50;10334033;28;20093;-81
2023/07/30 17:49:35;;;;;;;25.63;6.35;;;;;;;23.68;68.16;99799.16;10333953;28;20077;-81
2023/07/30 17:54:36;;;;;;;11.13;5.57;;;;;;;23.85;68.55;99828.78;10334207;28;20154;-80
2023/07/30 17:59:37;;;;;;;19.83;5.90;;;;;;;23.85;68.23;99845.88;10334188;28;20084;-81
2023/07/30 18:04:38;;;;;;;17.70;6.65;;;;;;;23.23;69.04;99765.41;10333735;28;20053;-80
2023/07/30 18:09:39;;;;;;;15.07;7.40;;;;;;;23.61;69.36;99842.81;10333304;28;20133;-80
2023/07/30 18:14:40;;;;;;;17.60;6.90;;;;;;;23.44;69.39;99839.47;10315780;28;20532;-80
2023/07/30 18:19:40;;;;;;;14.50;5.50;;;;;;;23.35;70.01;99844.59;10333744;28;20100;-80
2023/07/30 18:24:41;;;;;;;15.48;5.22;;;;;;;23.26;70.68;99827.22;10332943;28;20560;-80
2023/07/30 18:29:42;;;;;;;10.38;4.78;;;;;;;22.76;70.30;99748.13;10332416;28;20070;-80
2023/07/30 18:34:44;;;;;;;40.20;13.50;;;;;;;23.33;70.19;99845.94;10332782;28;20054;-80
2023/07/30 18:39:45;;;;;;;91.22;30.30;;;;;;;23.35;71.15;99841.06;10333071;28;20127;-80
2023/07/30 18:44:46;;;;;;;119.13;39.55;;;;;;;22.76;71.07;99771.66;10332432;28;20049;-80
2023/07/30 18:49:47;;;;;;;133.93;42.90;;;;;;;23.07;71.56;99832.28;10332334;28;20034;-79
2023/07/30 18:54:48;;;;;;;94.50;29.20;;;;;;;23.00;71.49;99839.81;10331313;28;20590;-79
2023/07/30 18:59:48;;;;;;;137.65;37.10;;;;;;;22.79;71.57;99807.19;10331987;28;20042;-80
2023/07/30 19:04:49;;;;;;;114.10;31.67;;;;;;;22.81;71.96;99831.28;10331742;28;20042;-79
2023/07/30 19:09:50;;;;;;;95.45;28.33;;;;;;;22.78;72.85;99843.44;10330930;28;20149;-81
2023/07/30 19:14:51;;;;;;;52.33;14.95;;;;;;;22.20;73.61;99758.59;10331314;28;20588;-80
2023/07/30 19:19:52;;;;;;;39.08;14.35;;;;;;;21.99;73.59;99733.25;10331366;28;20057;-80
2023/07/30 19:24:53;;;;;;;27.23;10.07;;;;;;;22.54;75.39;99848.41;10331473;28;20038;-80
2023/07/30 19:29:53;;;;;;;28.00;8.57;;;;;;;22.05;76.06;99758.44;10331368;28;20046;-75
2023/07/30 19:34:54;;;;;;;97.15;30.98;;;;;;;22.52;75.82;99833.50;10313195;28;20045;-75
2023/07/30 19:39:55;;;;;;;21.95;9.40;;;;;;;22.04;75.86;99751.38;10331191;28;20057;-76
2023/07/30 19:44:57;;;;;;;21.02;6.70;;;;;;;22.48;77.03;99827.78;10331942;28;20030;-75
2023/07/30 19:49:58;;;;;;;14.38;5.10;;;;;;;21.89;77.42;99744.75;10313774;28;20056;-75
2023/07/30 19:54:59;;;;;;;10.65;4.30;;;;;;;22.13;77.72;99787.69;10330334;28;20037;-77
2023/07/30 20:00:00;;;;;;;10.48;4.20;;;;;;;22.10;77.77;99785.50;10335739;28;20133;-76
2023/07/30 20:05:01;;;;;;;16.30;5.45;;;;;;;22.05;78.03;99791.72;10338746;28;20117;-76
2023/07/30 20:10:02;;;;;;;13.05;5.60;;;;;;;22.09;78.08;99816.34;10338007;28;20058;-75
2023/07/30 20:15:04;;;;;;;15.32;6.55;;;;;;;21.90;78.42;99805.09;10338053;28;20069;-75
2023/07/30 20:20:05;;;;;;;14.35;6.47;;;;;;;21.79;79.03;99781.72;10337102;28;20137;-76
2023/07/30 20:25:06;;;;;;;17.33;6.60;;;;;;;22.05;78.18;99824.16;10337524;28;20041;-76
2023/07/30 20:30:07;;;;;;;41.40;19.77;;;;;;;21.80;78.07;99794.16;10337391;28;20039;-75
2023/07/30 20:35:08;;;;;;;32.53;17.08;;;;;;;21.26;79.00;99705.75;10337197;28;20118;-76
2023/07/30 20:40:09;;;;;;;29.33;12.05;;;;;;;21.67;80.15;99800.00;10336914;28;20117;-75
2023/07/30 20:45:10;;;;;;;34.53;17.27;;;;;;;21.63;80.51;99791.56;10336895;28;20046;-75
2023/07/30 20:50:15;;;;;;;26.45;13.02;;;;;;;21.41;81.09;99761.88;10337695;28;20498;-75
2023/07/30 20:55:17;;;;;;;18.73;11.15;;;;;;;21.85;80.21;99835.59;10335824;28;20465;-75
2023/07/30 21:00:18;;;;;;;20.20;12.07;;;;;;;21.57;79.70;99795.28;10335872;28;20077;-75
2023/07/30 21:05:19;;;;;;;12.70;7.43;;;;;;;21.81;79.13;99820.16;10334702;28;20046;-75
2023/07/30 21:10:19;;;;;;;15.00;4.78;;;;;;;21.18;79.05;99749.44;10318142;28;20058;-76
2023/07/30 21:15:20;;;;;;;9.18;3.50;;;;;;;21.55;79.09;99822.56;10335332;28;20046;-75
2023/07/30 21:20:21;;;;;;;8.27;3.58;;;;;;;20.97;79.87;99759.97;10335536;28;20078;-75
2023/07/30 21:25:22;;;;;;;5.43;3.33;;;;;;;21.32;80.82;99823.59;10317364;28;20065;-75
2023/07/30 21:30:22;;;;;;;8.18;3.97;;;;;;;21.05;80.95;99772.22;10335338;28;20042;-76
2023/07/30 21:35:23;;;;;;;9.77;3.90;;;;;;;20.76;81.22;99725.69;10335214;28;20491;-75
2023/07/30 21:40:24;;;;;;;11.70;4.35;;;;;;;21.26;81.48;99797.59;10317247;28;20046;-75
2023/07/30 21:45:25;;;;;;;7.82;4.40;;;;;;;21.10;81.04;99779.56;10334079;28;20054;-75
2023/07/30 21:50:25;;;;;;;7.90;4.18;;;;;;;20.39;81.30;99699.25;10334427;28;20058;-75
2023/07/30 21:55:26;;;;;;;8.90;4.38;;;;;;;20.75;81.48;99751.03;10334546;28;20038;-75
2023/07/30 22:00:27;;;;;;;12.15;5.38;;;;;;;20.34;82.27;99709.13;10334049;28;20068;-75
2023/07/30 22:05:28;;;;;;;14.60;6.45;;;;;;;20.75;82.54;99770.75;10333551;28;20030;-75
2023/07/30 22:10:29;;;;;;;8.35;5.38;;;;;;;19.93;82.98;99641.94;10333252;28;20518;-75
2023/07/30 22:15:30;;;;;;;13.05;5.78;;;;;;;20.91;83.40;99811.44;10315715;28;20073;-75
2023/07/30 22:20:31;;;;;;;13.52;6.03;;;;;;;20.08;84.40;99676.41;10332386;28;20415;-75
2023/07/30 22:25:32;;;;;;;10.82;5.22;;;;;;;20.78;85.02;99798.31;10333677;28;20082;-75
2023/07/30 22:30:32;;;;;;;12.05;5.28;;;;;;;20.01;84.86;99679.28;10332404;28;20052;-76
2023/07/30 22:35:33;;;;;;;11.13;4.95;;;;;;;20.67;85.54;99773.88;10332288;28;20387;-77
2023/07/30 22:40:34;;;;;;;16.13;5.30;;;;;;;20.79;85.40;99816.97;10332132;28;20521;-75
2023/07/30 22:45:35;;;;;;;13.80;6.20;;;;;;;20.61;86.12;99798.31;10315106;28;20525;-75
2023/07/30 22:50:36;;;;;;;11.82;4.35;;;;;;;20.69;86.67;99822.22;10331712;28;20070;-75
2023/07/30 22:55:38;;;;;;;15.82;5.03;;;;;;;20.59;86.99;99805.88;10331643;28;20077;-76
2023/07/30 23:00:39;;;;;;;15.30;4.65;;;;;;;20.13;87.11;99730.41;10332427;28;20046;-75
2023/07/30 23:05:40;;;;;;;15.35;4.07;;;;;;;20.63;87.14;99805.13;10331851;28;20042;-76
2023/07/30 23:10:41;;;;;;;14.05;4.40;;;;;;;20.57;87.39;99803.41;10331753;28;20058;-75